Time;durP1;ratioP1;P1;durP2;ratioP2;P2;SDS_P1;SDS_P2;PMS_P1;PMS_P2;Temp;Humidity;BMP_temperature;BMP_pressure;BME280_temperature;BME280_humidity;BME280_pressure;Samples;Min_cycle;Max_cycle;Signal;HPM_P1;HPM_P2
2021/06/02 07:03:15;;;;;;;4.03;1.33;;;;;;;;;;4587248;28;20126;-84
2021/06/02 07:05:47;;;;;;;2.62;1.00;;;;;;;;;;4178531;34;20073;-84
2021/06/02 07:08:19;;;;;;;3.40;1.08;;;;;;;;;;4184482;34;20581;-85
2021/06/02 07:10:50;;;;;;;2.08;0.90;;;;;;;;;;4178599;34;20070;-85
2021/06/02 07:13:21;;;;;;;2.58;0.93;;;;;;;;;;4180139;34;20094;-85
2021/06/02 07:15:52;;;;;;;9.73;1.42;;;;;;;;;;4179291;34;20087;-84
2021/06/02 07:18:28;;;;;;;5.32;1.08;;;;;;;;;;4179155;34;20689;-85
2021/06/02 07:21:02;;;;;;;2.80;1.15;;;;;;;;;;4176989;34;20059;-85
2021/06/02 07:23:33;;;;;;;8.73;1.48;;;;;;;;;;4180707;34;20060;-85
2021/06/02 07:26:04;;;;;;;2.80;1.00;;;;;;;;;;4182845;34;20078;-85
2021/06/02 07:28:55;;;;;;;3.92;1.15;;;;;;;;;;4183705;34;20119;-84
2021/06/02 07:31:27;;;;;;;2.45;1.05;;;;;;;;;;4182179;34;20109;-85
2021/06/02 07:33:58;;;;;;;3.10;1.12;;;;;;;;;;4184912;34;20111;-86
2021/06/02 07:36:29;;;;;;;9.48;1.20;;;;;;;;;;4188096;34;20059;-85
2021/06/02 07:39:01;;;;;;;5.18;1.00;;;;;;;;;;4187570;34;20056;-84
2021/06/02 07:41:32;;;;;;;3.30;0.85;;;;;;;;;;4187113;34;20657;-85
2021/06/02 07:44:03;;;;;;;12.40;1.85;;;;;;;;;;4184639;34;20067;-85
2021/06/02 07:46:34;;;;;;;2.78;0.90;;;;;;;;;;4184349;34;20055;-85
2021/06/02 07:49:06;;;;;;;3.90;0.80;;;;;;;;;;4186911;34;20130;-85
2021/06/02 07:51:38;;;;;;;2.25;1.00;;;;;;;;;;4187571;34;20102;-85
2021/06/02 07:54:09;;;;;;;3.12;0.85;;;;;;;;;;4196008;34;20052;-85
2021/06/02 07:56:40;;;;;;;4.35;1.20;;;;;;;;;;4188466;34;20055;-85
2021/06/02 07:59:11;;;;;;;2.65;1.00;;;;;;;;;;4184721;34;20071;-85
2021/06/02 08:01:43;;;;;;;2.70;0.98;;;;;;;;;;4188462;34;20736;-85
2021/06/02 08:04:16;;;;;;;3.23;1.10;;;;;;;;;;4175484;34;20489;-85
2021/06/02 08:06:46;;;;;;;1.75;0.85;;;;;;;;;;4180146;34;20078;-86
2021/06/02 08:09:18;;;;;;;3.08;1.08;;;;;;;;;;4181908;34;20099;-85
2021/06/02 08:11:49;;;;;;;2.92;1.10;;;;;;;;;;4190349;34;20480;-85
2021/06/02 08:14:18;;;;;;;3.97;1.00;;;;;;;;;;4186904;34;20515;-85
2021/06/02 08:16:48;;;;;;;2.17;0.98;;;;;;;;;;4183177;34;20098;-85
2021/06/02 08:19:19;;;;;;;3.03;1.10;;;;;;;;;;4183799;34;21126;-85
2021/06/02 08:21:50;;;;;;;2.92;1.30;;;;;;;;;;4191556;34;20149;-85
2021/06/02 08:24:22;;;;;;;2.00;1.10;;;;;;;;;;4192459;34;20091;-85
2021/06/02 08:26:52;;;;;;;3.50;1.00;;;;;;;;;;4186155;34;20063;-85
2021/06/02 08:29:23;;;;;;;2.15;0.80;;;;;;;;;;4183839;34;20098;-85
2021/06/02 08:31:54;;;;;;;9.55;1.20;;;;;;;;;;4183965;34;20690;-85
2021/06/02 08:34:25;;;;;;;9.45;1.80;;;;;;;;;;4181955;34;21052;-85
2021/06/02 08:36:56;;;;;;;2.90;1.00;;;;;;;;;;4182745;34;20450;-85
2021/06/02 08:39:27;;;;;;;2.40;0.77;;;;;;;;;;4178333;34;20500;-85
2021/06/02 08:42:16;;;;;;;5.60;1.23;;;;;;;;;;4184008;34;20401;-86
2021/06/02 08:44:47;;;;;;;2.57;1.10;;;;;;;;;;4183897;34;20506;-85
2021/06/02 08:47:19;;;;;;;2.25;1.10;;;;;;;;;;4185102;34;20047;-85
2021/06/02 08:49:51;;;;;;;2.23;0.80;;;;;;;;;;4188423;34;20120;-85
2021/06/02 08:52:22;;;;;;;1.98;0.80;;;;;;;;;;4182327;34;20059;-85
2021/06/02 08:54:55;;;;;;;2.65;0.80;;;;;;;;;;4196318;34;20123;-85
2021/06/02 08:57:25;;;;;;;4.60;0.90;;;;;;;;;;4192750;34;20067;-85
2021/06/02 08:59:57;;;;;;;2.20;0.82;;;;;;;;;;4175905;34;20064;-85
2021/06/02 09:02:28;;;;;;;1.92;0.90;;;;;;;;;;4181762;34;20270;-85
2021/06/02 09:04:59;;;;;;;3.10;1.10;;;;;;;;;;4175489;34;20545;-85
2021/06/02 09:07:30;;;;;;;2.35;0.90;;;;;;;;;;4185338;34;20111;-85
2021/06/02 09:10:01;;;;;;;2.50;1.07;;;;;;;;;;4187453;34;20115;-85
2021/06/02 09:12:37;;;;;;;3.15;1.08;;;;;;;;;;4195316;34;20057;-85
2021/06/02 09:15:10;;;;;;;2.80;1.00;;;;;;;;;;4185013;34;20100;-85
2021/06/02 09:17:53;;;;;;;3.08;1.00;;;;;;;;;;4183387;34;20131;-85
2021/06/02 09:20:33;;;;;;;3.78;1.00;;;;;;;;;;4176503;34;20137;-85
2021/06/02 09:23:25;;;;;;;2.33;0.85;;;;;;;;;;4182923;34;20432;-85
2021/06/02 09:26:12;;;;;;;6.07;1.10;;;;;;;;;;4191052;34;20448;-85
2021/06/02 09:28:52;;;;;;;2.35;0.93;;;;;;;;;;4186164;34;20234;-85
2021/06/02 09:31:28;;;;;;;8.95;1.70;;;;;;;;;;4185776;34;20545;-85
2021/06/02 09:34:01;;;;;;;2.05;0.93;;;;;;;;;;4186514;34;20119;-85
2021/06/02 09:36:37;;;;;;;1.23;0.50;;;;;;;;;;4185455;34;20136;-85
2021/06/02 09:39:12;;;;;;;10.82;1.40;;;;;;;;;;4183098;34;20071;-85
2021/06/02 09:41:43;;;;;;;;;;;;;;;;;;4179236;34;20138;-85
2021/06/02 09:44:14;;;;;;;45.78;5.00;;;;;;;;;;4167782;34;20015;-85
2021/06/02 09:46:58;;;;;;;3.15;0.70;;;;;;;;;;4176456;34;20471;-85
2021/06/02 09:49:44;;;;;;;1.23;0.70;;;;;;;;;;4186871;34;20209;-85
2021/06/02 09:52:16;;;;;;;2.62;0.77;;;;;;;;;;4185755;34;20074;-85
2021/06/02 09:54:47;;;;;;;2.50;0.70;;;;;;;;;;4195440;34;20112;-85
2021/06/02 09:57:19;;;;;;;1.83;0.70;;;;;;;;;;4194863;34;20103;-85
2021/06/02 10:00:02;;;;;;;69.50;5.80;;;;;;;;;;4185231;34;20578;-84
2021/06/02 10:02:42;;;;;;;3.12;0.80;;;;;;;;;;4183934;34;20421;-84
2021/06/02 10:05:13;;;;;;;2.90;0.80;;;;;;;;;;4189571;34;20063;-85
2021/06/02 10:07:45;;;;;;;1.95;0.52;;;;;;;;;;4191091;34;20449;-84
2021/06/02 10:10:20;;;;;;;2.47;0.70;;;;;;;;;;4178490;34;20115;-85
2021/06/02 10:13:05;;;;;;;3.30;1.15;;;;;;;;;;4181856;34;20055;-85
2021/06/02 10:15:41;;;;;;;1.25;0.65;;;;;;;;;;4185897;34;20406;-85
2021/06/02 10:18:25;;;;;;;1.70;0.70;;;;;;;;;;4183259;34;20279;-85
2021/06/02 10:21:01;;;;;;;3.15;0.70;;;;;;;;;;4189150;34;20118;-85
2021/06/02 10:23:35;;;;;;;2.78;0.60;;;;;;;;;;4189795;34;20063;-85
2021/06/02 10:26:07;;;;;;;3.97;0.68;;;;;;;;;;4189085;34;20455;-85
2021/06/02 10:28:38;;;;;;;4.53;0.98;;;;;;;;;;4190352;34;20493;-85
2021/06/02 10:31:10;;;;;;;2.85;0.60;;;;;;;;;;4191432;34;20467;-85
2021/06/02 10:33:39;;;;;;;0.95;0.80;;;;;;;;;;4187946;34;20114;-84
2021/06/02 10:36:11;;;;;;;2.42;0.77;;;;;;;;;;4188061;34;20076;-85
2021/06/02 10:39:00;;;;;;;7.62;1.10;;;;;;;;;;4185161;34;20438;-85
2021/06/02 10:41:44;;;;;;;1.45;0.60;;;;;;;;;;4183157;34;20110;-85
2021/06/02 10:44:17;;;;;;;4.05;0.80;;;;;;;;;;4184251;34;20098;-85
2021/06/02 10:46:49;;;;;;;4.40;1.08;;;;;;;;;;4180347;34;20175;-85
2021/06/02 10:49:28;;;;;;;1.37;0.73;;;;;;;;;;4182944;34;20151;-85
2021/06/02 10:52:00;;;;;;;5.18;1.30;;;;;;;;;;4179446;34;20119;-85
2021/06/02 10:54:36;;;;;;;2.33;0.65;;;;;;;;;;4171964;34;20095;-85
2021/06/02 10:57:15;;;;;;;2.47;0.75;;;;;;;;;;4181980;34;20166;-85
2021/06/02 10:59:44;;;;;;;2.33;0.88;;;;;;;;;;4183181;34;20064;-85
2021/06/02 11:02:16;;;;;;;2.62;0.75;;;;;;;;;;4194296;34;20090;-85
2021/06/02 11:04:55;;;;;;;2.92;0.88;;;;;;;;;;4185712;34;20059;-84
2021/06/02 11:07:29;;;;;;;2.05;0.77;;;;;;;;;;4183103;34;20126;-85
2021/06/02 11:10:00;;;;;;;3.62;0.73;;;;;;;;;;4183276;34;20099;-86
2021/06/02 11:12:47;;;;;;;1.58;0.90;;;;;;;;;;4183642;34;20063;-85
2021/06/02 11:15:24;;;;;;;2.50;0.70;;;;;;;;;;4181374;34;20533;-85
2021/06/02 11:18:04;;;;;;;5.70;1.00;;;;;;;;;;4186875;34;20078;-85
2021/06/02 11:20:42;;;;;;;11.57;1.50;;;;;;;;;;4179721;34;20112;-84
2021/06/02 11:23:15;;;;;;;16.20;2.00;;;;;;;;;;4180092;34;20749;-85
2021/06/02 11:25:46;;;;;;;2.00;0.70;;;;;;;;;;4181426;34;20113;-85
2021/06/02 11:28:36;;;;;;;2.47;0.65;;;;;;;;;;4187132;34;20063;-85
2021/06/02 11:31:26;;;;;;;2.12;0.80;;;;;;;;;;4180564;34;20479;-84
2021/06/02 11:34:16;;;;;;;2.20;0.70;;;;;;;;;;4188847;34;20078;-84
2021/06/02 11:36:59;;;;;;;3.40;0.80;;;;;;;;;;4178956;34;20089;-85
2021/06/02 11:39:30;;;;;;;1.83;0.93;;;;;;;;;;4182665;34;20091;-85
2021/06/02 11:42:07;;;;;;;4.00;0.77;;;;;;;;;;4191473;34;20913;-84
2021/06/02 11:44:39;;;;;;;2.45;0.70;;;;;;;;;;4182245;34;20150;-85
2021/06/02 11:47:10;;;;;;;2.25;0.55;;;;;;;;;;4177343;34;20103;-85
2021/06/02 11:49:43;;;;;;;5.05;0.85;;;;;;;;;;4176888;34;20134;-85
2021/06/02 11:52:15;;;;;;;2.55;0.90;;;;;;;;;;4178901;34;20074;-84
2021/06/02 11:54:48;;;;;;;3.35;0.80;;;;;;;;;;4177479;34;20123;-84
2021/06/02 11:57:32;;;;;;;1.98;0.80;;;;;;;;;;4179005;34;20520;-84
2021/06/02 12:00:09;;;;;;;2.75;0.90;;;;;;;;;;4179805;34;20063;-84
2021/06/02 12:02:42;;;;;;;6.15;0.95;;;;;;;;;;4168707;34;20108;-84
2021/06/02 12:05:16;;;;;;;1.92;0.70;;;;;;;;;;4161272;34;20851;-85
2021/06/02 12:07:46;;;;;;;1.30;0.60;;;;;;;;;;4162613;34;20139;-84
2021/06/02 12:10:17;;;;;;;2.20;0.77;;;;;;;;;;4161120;34;20521;-84
2021/06/02 12:12:49;;;;;;;3.03;0.90;;;;;;;;;;4166027;34;20087;-85
2021/06/02 12:15:21;;;;;;;1.33;0.88;;;;;;;;;;4175675;34;20435;-84
2021/06/02 12:17:53;;;;;;;1.30;0.65;;;;;;;;;;4181095;34;20110;-84
2021/06/02 12:20:25;;;;;;;1.20;0.70;;;;;;;;;;4182879;34;20048;-84
2021/06/02 12:22:57;;;;;;;3.58;0.70;;;;;;;;;;4179916;34;20052;-84
2021/06/02 12:25:28;;;;;;;4.30;1.10;;;;;;;;;;4181352;34;20063;-84
2021/06/02 12:28:13;;;;;;;2.45;0.90;;;;;;;;;;4182172;34;20063;-84
2021/06/02 12:30:43;;;;;;;1.98;0.80;;;;;;;;;;4191973;34;20106;-84
2021/06/02 12:33:14;;;;;;;3.47;0.68;;;;;;;;;;4182051;34;20111;-84
2021/06/02 12:35:44;;;;;;;2.45;0.80;;;;;;;;;;4179796;34;20111;-84
2021/06/02 12:38:23;;;;;;;2.00;0.80;;;;;;;;;;4186749;34;20140;-85
2021/06/02 12:40:55;;;;;;;7.30;1.27;;;;;;;;;;4184830;34;20123;-84
2021/06/02 12:43:32;;;;;;;2.03;0.77;;;;;;;;;;4184376;34;20060;-84
2021/06/02 12:46:14;;;;;;;1.73;0.90;;;;;;;;;;4175629;34;20131;-84
2021/06/02 12:48:46;;;;;;;2.12;0.65;;;;;;;;;;4186695;34;20134;-84
2021/06/02 12:51:21;;;;;;;3.53;0.98;;;;;;;;;;4173636;34;20168;-85
2021/06/02 12:53:52;;;;;;;3.17;0.90;;;;;;;;;;4171289;34;20105;-84
2021/06/02 12:56:23;;;;;;;2.20;0.90;;;;;;;;;;4176761;34;20051;-85
2021/06/02 12:58:58;;;;;;;10.05;1.45;;;;;;;;;;4181704;34;20212;-85
2021/06/02 13:01:33;;;;;;;7.50;0.90;;;;;;;;;;4175906;34;20311;-83
2021/06/02 13:04:05;;;;;;;1.85;0.70;;;;;;;;;;4184671;34;20055;-84
2021/06/02 13:06:36;;;;;;;1.23;0.65;;;;;;;;;;4184572;34;20111;-84
2021/06/02 13:09:08;;;;;;;2.00;0.75;;;;;;;;;;4182014;34;20146;-84
2021/06/02 13:11:40;;;;;;;77.25;6.32;;;;;;;;;;4182872;34;20126;-85
2021/06/02 13:14:11;;;;;;;14.38;1.75;;;;;;;;;;4183751;34;20139;-84
2021/06/02 13:16:52;;;;;;;2.53;0.70;;;;;;;;;;4182287;34;20103;-84
2021/06/02 13:19:33;;;;;;;2.92;0.60;;;;;;;;;;4189178;34;20219;-84
2021/06/02 13:22:05;;;;;;;1.83;0.62;;;;;;;;;;4187758;34;20115;-84
2021/06/02 13:24:39;;;;;;;3.75;0.60;;;;;;;;;;4183524;34;20286;-84
2021/06/02 13:27:18;;;;;;;3.58;0.60;;;;;;;;;;4182467;34;20103;-85
2021/06/02 13:30:10;;;;;;;2.05;0.52;;;;;;;;;;4185657;34;20357;-84
2021/06/02 13:32:54;;;;;;;2.10;0.70;;;;;;;;;;4179775;34;20098;-84
2021/06/02 13:35:25;;;;;;;4.62;0.62;;;;;;;;;;4184831;34;20141;-83
2021/06/02 13:37:56;;;;;;;14.63;1.27;;;;;;;;;;4177817;34;20055;-83
2021/06/02 13:40:32;;;;;;;1.80;0.60;;;;;;;;;;4170032;34;20085;-84
2021/06/02 13:43:04;;;;;;;1.90;0.50;;;;;;;;;;4176168;34;20120;-84
2021/06/02 13:45:38;;;;;;;2.72;0.70;;;;;;;;;;4183006;34;20068;-84
2021/06/02 13:48:27;;;;;;;1.50;0.60;;;;;;;;;;4180135;34;20121;-84
2021/06/02 13:51:19;;;;;;;0.77;0.57;;;;;;;;;;4175684;34;20129;-84
2021/06/02 13:54:11;;;;;;;1.83;0.68;;;;;;;;;;4184109;34;20077;-84
2021/06/02 13:56:52;;;;;;;2.25;0.60;;;;;;;;;;4188023;34;20071;-84
2021/06/02 13:59:33;;;;;;;3.28;0.70;;;;;;;;;;4179960;34;20095;-84
2021/06/02 14:02:05;;;;;;;4.85;0.70;;;;;;;;;;4173573;34;20138;-83
2021/06/02 14:04:38;;;;;;;5.03;0.82;;;;;;;;;;4180266;34;20060;-84
2021/06/02 14:07:09;;;;;;;2.87;0.70;;;;;;;;;;4194018;34;20081;-84
2021/06/02 14:09:41;;;;;;;2.17;0.50;;;;;;;;;;4174866;34;20047;-84
2021/06/02 14:12:13;;;;;;;1.75;0.50;;;;;;;;;;4178735;34;20482;-84
2021/06/02 14:14:45;;;;;;;2.03;0.57;;;;;;;;;;4182883;34;20118;-83
2021/06/02 14:17:16;;;;;;;0.82;0.45;;;;;;;;;;4190570;34;20737;-84
2021/06/02 14:19:48;;;;;;;3.47;0.70;;;;;;;;;;4173839;34;20116;-84
2021/06/02 14:22:19;;;;;;;2.28;0.70;;;;;;;;;;4180385;34;20131;-83
2021/06/02 14:24:50;;;;;;;1.02;0.55;;;;;;;;;;4172020;34;20083;-84
2021/06/02 14:27:22;;;;;;;2.25;0.57;;;;;;;;;;4172677;34;20108;-85
2021/06/02 14:29:53;;;;;;;3.28;0.80;;;;;;;;;;4170561;34;20064;-83
2021/06/02 14:32:23;;;;;;;2.08;0.60;;;;;;;;;;4179396;34;20091;-83
2021/06/02 14:34:54;;;;;;;1.83;0.60;;;;;;;;;;4184936;34;20485;-84
2021/06/02 14:37:27;;;;;;;1.45;0.40;;;;;;;;;;4177997;34;20171;-84
2021/06/02 14:39:58;;;;;;;3.25;0.73;;;;;;;;;;4163576;34;20478;-85
2021/06/02 14:42:30;;;;;;;2.60;0.70;;;;;;;;;;4167120;34;20489;-84
2021/06/02 14:45:01;;;;;;;2.33;0.57;;;;;;;;;;4171278;34;20486;-84
2021/06/02 14:47:31;;;;;;;44.65;4.32;;;;;;;;;;4169641;34;20100;-84
2021/06/02 14:50:06;;;;;;;1.67;0.65;;;;;;;;;;4160953;34;21449;-86
2021/06/02 14:52:36;;;;;;;4.27;0.77;;;;;;;;;;4175617;34;20065;-86
2021/06/02 14:55:07;;;;;;;3.85;0.50;;;;;;;;;;4177081;34;20063;-86
2021/06/02 14:57:38;;;;;;;9.35;1.12;;;;;;;;;;4170930;34;20737;-86
2021/06/02 15:00:11;;;;;;;1.20;0.60;;;;;;;;;;4156722;34;20235;-86
2021/06/02 15:02:42;;;;;;;11.77;1.67;;;;;;;;;;4158544;34;20188;-87
2021/06/02 15:05:14;;;;;;;1.77;0.50;;;;;;;;;;4162133;34;20223;-86
2021/06/02 15:07:44;;;;;;;1.90;0.50;;;;;;;;;;4165806;34;20081;-86
2021/06/02 15:10:15;;;;;;;1.42;0.40;;;;;;;;;;4157311;34;20052;-86
2021/06/02 15:12:57;;;;;;;1.55;0.55;;;;;;;;;;4180208;34;20127;-88
2021/06/02 15:15:30;;;;;;;4.07;0.60;;;;;;;;;;4174447;34;20056;-86
2021/06/02 15:18:02;;;;;;;1.65;0.50;;;;;;;;;;4173565;34;20059;-86
2021/06/02 15:20:34;;;;;;;1.77;0.85;;;;;;;;;;4163368;34;20172;-87
2021/06/02 15:23:05;;;;;;;1.15;0.50;;;;;;;;;;4159568;34;20039;-87
2021/06/02 15:25:49;;;;;;;3.87;0.70;;;;;;;;;;4171400;34;20454;-86
2021/06/02 15:28:21;;;;;;;2.15;0.60;;;;;;;;;;4163856;34;20047;-85
2021/06/02 15:30:57;;;;;;;4.55;0.57;;;;;;;;;;4165401;34;20052;-85
2021/06/02 15:33:28;;;;;;;0.62;0.35;;;;;;;;;;4166994;34;20223;-85
2021/06/02 15:36:00;;;;;;;2.17;0.65;;;;;;;;;;4170863;34;20102;-84
2021/06/02 15:38:31;;;;;;;10.13;0.88;;;;;;;;;;4165931;34;20125;-84
2021/06/02 15:41:03;;;;;;;0.85;0.40;;;;;;;;;;4168834;34;20480;-85
2021/06/02 15:43:34;;;;;;;2.05;0.85;;;;;;;;;;4160524;34;20138;-84
2021/06/02 15:46:06;;;;;;;54.63;4.78;;;;;;;;;;4169626;34;20444;-84
2021/06/02 15:48:37;;;;;;;1.40;0.57;;;;;;;;;;4182655;34;20051;-85
2021/06/02 15:51:08;;;;;;;18.17;1.48;;;;;;;;;;4185051;34;20154;-84
2021/06/02 15:53:40;;;;;;;3.03;0.50;;;;;;;;;;4174325;34;20086;-85
2021/06/02 15:56:12;;;;;;;2.45;0.60;;;;;;;;;;4176726;34;20541;-84
2021/06/02 15:58:40;;;;;;;1.67;0.50;;;;;;;;;;4163336;34;20807;-84
2021/06/02 16:01:11;;;;;;;2.83;0.60;;;;;;;;;;4168079;34;20051;-85
2021/06/02 16:03:47;;;;;;;1.05;0.65;;;;;;;;;;4171882;34;20148;-85
2021/06/02 16:06:18;;;;;;;3.45;0.75;;;;;;;;;;4179453;34;20853;-84
2021/06/02 16:08:50;;;;;;;1.15;0.50;;;;;;;;;;4171462;34;20122;-85
2021/06/02 16:11:22;;;;;;;18.92;1.85;;;;;;;;;;4178740;34;20126;-84
2021/06/02 16:13:53;;;;;;;2.47;0.82;;;;;;;;;;4186568;34;20051;-84
2021/06/02 16:16:23;;;;;;;1.62;0.60;;;;;;;;;;4176026;34;20403;-84
2021/06/02 16:18:54;;;;;;;10.13;1.48;;;;;;;;;;4175671;34;20145;-85
2021/06/02 16:21:26;;;;;;;1.10;0.50;;;;;;;;;;4183352;34;20108;-84
2021/06/02 16:23:57;;;;;;;4.85;1.05;;;;;;;;;;4186136;34;20110;-84
2021/06/02 16:26:28;;;;;;;2.35;0.55;;;;;;;;;;4183759;34;20064;-85
2021/06/02 16:29:00;;;;;;;2.00;0.60;;;;;;;;;;4176985;34;20120;-85
2021/06/02 16:31:32;;;;;;;1.85;0.60;;;;;;;;;;4182529;34;20134;-85
2021/06/02 16:34:05;;;;;;;3.00;0.52;;;;;;;;;;4176630;34;20115;-85
2021/06/02 16:36:38;;;;;;;4.45;0.75;;;;;;;;;;4161943;34;20095;-84
2021/06/02 16:39:11;;;;;;;1.62;0.70;;;;;;;;;;4170401;34;20107;-85
2021/06/02 16:41:44;;;;;;;2.92;0.62;;;;;;;;;;4167223;34;20079;-85
2021/06/02 16:44:16;;;;;;;1.80;0.60;;;;;;;;;;4178793;34;20402;-86
2021/06/02 16:46:47;;;;;;;4.32;1.30;;;;;;;;;;4179715;34;20054;-85
2021/06/02 16:49:18;;;;;;;10.75;0.80;;;;;;;;;;4172600;34;20168;-85
2021/06/02 16:51:53;;;;;;;1.80;0.70;;;;;;;;;;4168401;34;20111;-85
2021/06/02 16:54:23;;;;;;;;;;;;;;;;;;4183263;34;20060;-84
2021/06/02 16:56:58;;;;;;;3.53;2.45;;;;;;;;;;4172748;34;19988;-85
2021/06/02 16:59:30;;;;;;;3.75;2.00;;;;;;;;;;4177064;34;20534;-85
2021/06/02 17:02:01;;;;;;;1.20;1.10;;;;;;;;;;4169377;34;20146;-85
2021/06/02 17:04:32;;;;;;;8.90;1.50;;;;;;;;;;4172811;34;20103;-85
2021/06/02 17:07:06;;;;;;;0.95;0.70;;;;;;;;;;4170213;34;20130;-85
2021/06/02 17:09:37;;;;;;;2.50;0.68;;;;;;;;;;4167206;34;20124;-85
2021/06/02 17:12:09;;;;;;;19.20;2.25;;;;;;;;;;4164477;34;21103;-85
2021/06/02 17:14:40;;;;;;;2.80;0.57;;;;;;;;;;4167411;34;20055;-85
2021/06/02 17:17:18;;;;;;;2.67;0.55;;;;;;;;;;4162275;34;20134;-85
2021/06/02 17:19:55;;;;;;;2.55;0.82;;;;;;;;;;4162948;34;20554;-86
2021/06/02 17:22:26;;;;;;;1.23;0.50;;;;;;;;;;4169299;34;20127;-85
2021/06/02 17:24:59;;;;;;;2.92;0.70;;;;;;;;;;4166184;34;20612;-84
2021/06/02 17:27:30;;;;;;;2.75;0.70;;;;;;;;;;4163923;34;20621;-85
2021/06/02 17:30:02;;;;;;;0.93;0.60;;;;;;;;;;4166974;34;20578;-85
2021/06/02 17:32:33;;;;;;;1.08;0.55;;;;;;;;;;4171197;34;20064;-85
2021/06/02 17:35:07;;;;;;;3.20;0.50;;;;;;;;;;4173251;34;20149;-85
2021/06/02 17:37:38;;;;;;;3.80;0.60;;;;;;;;;;4173811;34;20531;-85
2021/06/02 17:40:11;;;;;;;2.40;0.60;;;;;;;;;;4166704;34;20056;-86
2021/06/02 17:42:43;;;;;;;2.28;0.60;;;;;;;;;;4170226;34;20507;-85
2021/06/02 17:45:15;;;;;;;1.12;0.60;;;;;;;;;;4171030;34;20476;-85
2021/06/02 17:47:46;;;;;;;1.75;0.70;;;;;;;;;;4164363;34;20100;-85
2021/06/02 17:50:19;;;;;;;1.37;0.40;;;;;;;;;;4164694;34;20775;-85
2021/06/02 17:52:54;;;;;;;3.95;0.88;;;;;;;;;;4169071;34;20137;-84
2021/06/02 17:55:25;;;;;;;1.60;0.47;;;;;;;;;;4164721;34;20151;-85
2021/06/02 17:57:58;;;;;;;7.50;1.10;;;;;;;;;;4166214;34;20795;-85
2021/06/02 18:00:32;;;;;;;2.72;0.55;;;;;;;;;;4170220;34;20081;-85
2021/06/02 18:03:04;;;;;;;5.53;0.73;;;;;;;;;;4171273;34;20060;-86
2021/06/02 18:05:35;;;;;;;1.75;0.50;;;;;;;;;;4168154;34;20121;-85
2021/06/02 18:08:11;;;;;;;32.50;2.53;;;;;;;;;;4166516;34;20258;-84
2021/06/02 18:10:42;;;;;;;3.37;0.60;;;;;;;;;;4177736;34;20203;-86
2021/06/02 18:13:13;;;;;;;8.85;0.95;;;;;;;;;;4171840;34;20082;-85
2021/06/02 18:15:48;;;;;;;2.62;0.60;;;;;;;;;;4168156;34;20067;-85
2021/06/02 18:18:30;;;;;;;15.32;2.20;;;;;;;;;;4166846;34;20068;-85
2021/06/02 18:21:03;;;;;;;5.80;0.80;;;;;;;;;;4175283;34;20125;-85
2021/06/02 18:23:37;;;;;;;2.40;0.77;;;;;;;;;;4167912;34;20103;-85
2021/06/02 18:26:08;;;;;;;3.15;0.82;;;;;;;;;;4166010;34;20060;-85
2021/06/02 18:28:41;;;;;;;2.47;0.50;;;;;;;;;;4168625;34;20056;-84
2021/06/02 18:31:13;;;;;;;2.25;0.73;;;;;;;;;;4169223;34;20182;-85
2021/06/02 18:33:44;;;;;;;1.52;0.70;;;;;;;;;;4170971;34;20478;-86
2021/06/02 18:36:15;;;;;;;2.65;0.70;;;;;;;;;;4171249;34;20321;-85
2021/06/02 18:38:48;;;;;;;3.22;0.80;;;;;;;;;;4171866;34;20297;-85
2021/06/02 18:41:19;;;;;;;1.50;0.60;;;;;;;;;;4171737;34;20146;-85
2021/06/02 18:43:50;;;;;;;1.67;0.50;;;;;;;;;;4163265;34;20149;-85
2021/06/02 18:46:21;;;;;;;1.52;0.80;;;;;;;;;;4162318;34;20471;-85
2021/06/02 18:48:52;;;;;;;1.12;0.50;;;;;;;;;;4164867;34;20364;-85
2021/06/02 18:51:23;;;;;;;2.17;0.50;;;;;;;;;;4165148;34;20119;-85
2021/06/02 18:53:54;;;;;;;0.65;0.50;;;;;;;;;;4161977;34;20127;-85
2021/06/02 18:56:25;;;;;;;1.48;0.80;;;;;;;;;;4164770;34;20074;-85
2021/06/02 18:58:56;;;;;;;1.75;0.62;;;;;;;;;;4170093;34;20140;-85
2021/06/02 19:01:29;;;;;;;2.92;0.60;;;;;;;;;;4173040;34;20064;-85
2021/06/02 19:04:00;;;;;;;1.55;0.60;;;;;;;;;;4176771;34;20504;-84
2021/06/02 19:06:31;;;;;;;0.80;0.60;;;;;;;;;;4172197;34;20134;-84
2021/06/02 19:09:04;;;;;;;47.30;3.00;;;;;;;;;;4179065;34;20136;-84
2021/06/02 19:11:37;;;;;;;1.62;0.80;;;;;;;;;;4170063;34;20103;-84
2021/06/02 19:14:08;;;;;;;3.22;0.62;;;;;;;;;;4175387;34;20052;-85
2021/06/02 19:16:39;;;;;;;2.12;0.65;;;;;;;;;;4169484;34;20430;-85
2021/06/02 19:19:12;;;;;;;1.85;0.60;;;;;;;;;;4171412;34;20385;-85
2021/06/02 19:21:42;;;;;;;1.42;1.00;;;;;;;;;;4175097;34;20071;-85
2021/06/02 19:24:13;;;;;;;4.25;1.60;;;;;;;;;;4170412;34;20202;-86
2021/06/02 19:26:45;;;;;;;3.75;1.17;;;;;;;;;;4169135;34;20087;-84
2021/06/02 19:29:18;;;;;;;2.22;1.17;;;;;;;;;;4161810;34;20103;-86
2021/06/02 19:31:49;;;;;;;2.80;1.33;;;;;;;;;;4173337;34;20119;-85
2021/06/02 19:34:20;;;;;;;9.18;3.33;;;;;;;;;;4175795;34;20153;-85
2021/06/02 19:36:51;;;;;;;2.53;2.33;;;;;;;;;;4164707;34;20082;-84
2021/06/02 19:39:22;;;;;;;3.47;3.28;;;;;;;;;;4166577;34;20157;-85
2021/06/02 19:41:53;;;;;;;5.90;5.40;;;;;;;;;;4170374;34;20132;-85
2021/06/02 19:44:25;;;;;;;18.67;17.75;;;;;;;;;;4174062;34;20056;-84
2021/06/02 19:47:02;;;;;;;10.13;9.43;;;;;;;;;;4169450;34;20588;-85
2021/06/02 19:49:33;;;;;;;23.58;22.27;;;;;;;;;;4178677;34;21034;-84
2021/06/02 19:52:06;;;;;;;26.25;24.77;;;;;;;;;;4175365;34;20124;-85
2021/06/02 19:54:38;;;;;;;31.80;29.83;;;;;;;;;;4162237;34;20071;-85
2021/06/02 19:57:15;;;;;;;33.90;31.23;;;;;;;;;;4167024;34;20145;-85
2021/06/02 19:59:47;;;;;;;51.88;37.08;;;;;;;;;;4170902;34;20230;-85
2021/06/02 20:02:18;;;;;;;48.92;44.85;;;;;;;;;;4160201;34;20509;-85
2021/06/02 20:04:49;;;;;;;50.12;45.83;;;;;;;;;;4164992;34;20459;-84
2021/06/02 20:07:20;;;;;;;51.13;46.90;;;;;;;;;;4160335;34;20239;-85
2021/06/02 20:09:52;;;;;;;52.20;47.75;;;;;;;;;;4178012;34;20079;-84
2021/06/02 20:12:26;;;;;;;47.47;43.67;;;;;;;;;;4175287;34;20507;-84
2021/06/02 20:14:57;;;;;;;43.92;40.42;;;;;;;;;;4172970;34;20211;-85
2021/06/02 20:17:29;;;;;;;27.67;25.45;;;;;;;;;;4160252;34;20211;-85
2021/06/02 20:20:00;;;;;;;28.12;25.83;;;;;;;;;;4163798;34;20260;-85
2021/06/02 20:22:44;;;;;;;;;;;;;;;;;;;;;
2021/06/02 20:25:38;;;;;;;29.83;27.52;;;;;;;;;;4170302;34;20091;-85
2021/06/02 20:28:17;;;;;;;29.80;27.65;;;;;;;;;;4163437;34;20074;-85
2021/06/02 20:33:19;;;;;;;45.42;42.03;;;;;;;;;;4174039;34;20169;-84
2021/06/02 20:35:51;;;;;;;44.90;41.55;;;;;;;;;;4165812;34;20484;-85
2021/06/02 20:38:23;;;;;;;45.12;41.28;;;;;;;;;;4168756;34;20111;-84
2021/06/02 20:40:59;;;;;;;38.55;35.63;;;;;;;;;;4173328;34;20784;-84
2021/06/02 20:43:30;;;;;;;41.15;38.05;;;;;;;;;;4170848;34;20562;-85
2021/06/02 20:46:01;;;;;;;39.55;36.45;;;;;;;;;;4173385;34;20329;-85
2021/06/02 20:48:31;;;;;;;49.20;45.50;;;;;;;;;;4159301;34;20059;-85
2021/06/02 20:51:03;;;;;;;46.53;43.15;;;;;;;;;;4162129;34;20064;-86
2021/06/02 20:53:34;;;;;;;46.72;43.28;;;;;;;;;;4167257;34;20154;-84
2021/06/02 20:56:05;;;;;;;33.78;31.08;;;;;;;;;;4175733;34;20094;-85
2021/06/02 20:58:36;;;;;;;30.00;27.83;;;;;;;;;;4173324;34;20108;-84
2021/06/02 21:01:07;;;;;;;29.77;27.58;;;;;;;;;;4169130;34;20118;-85
2021/06/02 21:03:38;;;;;;;26.95;25.25;;;;;;;;;;4170154;34;20059;-85
2021/06/02 21:06:10;;;;;;;27.35;25.48;;;;;;;;;;4170129;34;20071;-85
2021/06/02 21:08:41;;;;;;;30.60;28.45;;;;;;;;;;4169274;34;20134;-85
2021/06/02 21:11:13;;;;;;;36.08;33.25;;;;;;;;;;4164116;34;20048;-84
2021/06/02 21:13:49;;;;;;;37.15;34.20;;;;;;;;;;4164861;34;20550;-85
2021/06/02 21:16:21;;;;;;;37.58;34.58;;;;;;;;;;4167312;34;20119;-84
2021/06/02 21:18:52;;;;;;;35.83;32.97;;;;;;;;;;4169589;34;20131;-84
2021/06/02 21:21:24;;;;;;;42.28;39.28;;;;;;;;;;4165874;34;20573;-85
2021/06/02 21:23:55;;;;;;;41.13;38.15;;;;;;;;;;4170274;34;20503;-85
2021/06/02 21:26:26;;;;;;;41.17;38.15;;;;;;;;;;4172703;34;20558;-85
2021/06/02 21:28:56;;;;;;;35.00;32.50;;;;;;;;;;4168375;34;20416;-84
2021/06/02 21:31:28;;;;;;;36.20;33.50;;;;;;;;;;4166132;34;20502;-85
2021/06/02 21:34:00;;;;;;;36.20;33.33;;;;;;;;;;4175447;34;20560;-85
2021/06/02 21:36:32;;;;;;;38.72;35.53;;;;;;;;;;4166757;34;20430;-86
2021/06/02 21:39:03;;;;;;;25.77;24.08;;;;;;;;;;4171102;34;20071;-85
2021/06/02 21:41:34;;;;;;;25.98;24.12;;;;;;;;;;4172288;34;20497;-86
2021/06/02 21:44:06;;;;;;;26.92;25.02;;;;;;;;;;4165355;34;20345;-85
2021/06/02 21:46:39;;;;;;;27.23;24.40;;;;;;;;;;4160893;34;20121;-85
2021/06/02 21:49:10;;;;;;;36.83;34.03;;;;;;;;;;4168082;34;20747;-85
2021/06/02 21:51:41;;;;;;;37.17;34.42;;;;;;;;;;4167917;34;20582;-85
2021/06/02 21:54:12;;;;;;;44.30;41.10;;;;;;;;;;4164263;34;20074;-85
2021/06/02 21:56:51;;;;;;;43.92;40.72;;;;;;;;;;4166114;34;20484;-86
2021/06/02 21:59:27;;;;;;;44.95;41.55;;;;;;;;;;4168418;34;20516;-85
2021/06/02 22:02:02;;;;;;;45.40;42.00;;;;;;;;;;4164180;34;20600;-85
2021/06/02 22:04:34;;;;;;;46.33;42.85;;;;;;;;;;4171585;34;20120;-84
2021/06/02 22:07:08;;;;;;;;;;;;;;;;;;4169469;34;20055;-85
2021/06/02 22:09:44;;;;;;;43.90;40.40;;;;;;;;;;4169113;34;20316;-85
2021/06/02 22:12:23;;;;;;;42.78;39.38;;;;;;;;;;4168848;34;20051;-85
2021/06/02 22:15:00;;;;;;;31.17;28.85;;;;;;;;;;4161605;34;21208;-85
2021/06/02 22:17:37;;;;;;;29.12;27.13;;;;;;;;;;4166588;34;20203;-85
2021/06/02 22:20:13;;;;;;;29.17;27.17;;;;;;;;;;4171494;34;20124;-86
2021/06/02 22:22:44;;;;;;;30.23;28.12;;;;;;;;;;4164315;34;20179;-85